PWSweather.com
Personal Weather Stations
Station Observations
TENMILE2
Watts Bar Lake, Ten Mile, TN 37880

Watts Bar LakeTen Mile, TN 37880

Lat: 35.686, Lon: -84.7068

Elevation: 767

Station Type: Davis VP2

http://www.wattsbarweather.net

Latest ConditionsUpdated 6:57:07 PM EST Tuesday, Jan 23, 2018
Currently Today's Max Today's Min Today's Average
Temperature 43.1°F6.2°C 58.3°F14.6°C 41.6°F5.3°C 47.9°F8.8°C
Dew Point 31.0°F-0.6°C 54.7°F12.6°C 29.3°F-1.5°C 33.5°F0.8°C
Winds 1.3 mph WSW2.1 kmh WSW 14.5 mph S23.3 kmh S - 4.5 mph 7.2 kmh
Wind Gusts 7.5 mph12.1 kmh 27.5 mph44.3 kmh - -
Humidity 62% 88% 48% 58%
Pressure 30.18 in1022.0 mb 30.18 in1022.0 mb 29.84 in1010.5 mb -
Hour Temp Dew Point Humidity Winds Wind Gusts Pressure Precip Precip Rate Daily Precip Total
06:57 PM 43.1°F6.2°C 31.0°F-0.6°C 62% 1.3 mph WSW2.1 kmh WSW 7.5 mph12.1 kmh 30.18 in1022.0 mb 0.00 in0.0 mm 0.00 in0.0 mm 0.00 in0.0 mm
06:52 PM 43.1°F6.2°C 31.0°F-0.6°C 62% 2.0 mph SW3.2 kmh SW 7.5 mph12.1 kmh 30.18 in1022.0 mb 0.00 in0.0 mm 0.00 in0.0 mm 0.00 in0.0 mm
06:47 PM 43.2°F6.2°C 31.1°F-0.5°C 62% 2.5 mph S4.0 kmh S 6.3 mph10.1 kmh 30.18 in1022.0 mb 0.00 in0.0 mm 0.00 in0.0 mm 0.00 in0.0 mm
06:42 PM 43.3°F6.3°C 30.8°F-0.7°C 61% 3.0 mph SW4.8 kmh SW 6.3 mph10.1 kmh 30.18 in1022.0 mb 0.00 in0.0 mm 0.00 in0.0 mm 0.00 in0.0 mm
06:37 PM 43.3°F6.3°C 30.8°F-0.7°C 61% 1.5 mph SW2.4 kmh SW 6.3 mph10.1 kmh 30.17 in1021.7 mb 0.00 in0.0 mm 0.00 in0.0 mm 0.00 in0.0 mm
06:32 PM 43.3°F6.3°C 30.4°F-0.9°C 60% 1.8 mph ENE2.9 kmh ENE 2.5 mph4.0 kmh 30.17 in1021.7 mb 0.00 in0.0 mm 0.00 in0.0 mm 0.00 in0.0 mm
06:26 PM 43.3°F6.3°C 30.8°F-0.7°C 61% 1.3 mph WSW2.1 kmh WSW 2.5 mph4.0 kmh 30.17 in1021.7 mb 0.00 in0.0 mm 0.00 in0.0 mm 0.00 in0.0 mm
06:22 PM 43.3°F6.3°C 30.8°F-0.7°C 61% 1.7 mph NE2.7 kmh NE 2.5 mph4.0 kmh 30.16 in1021.3 mb 0.00 in0.0 mm 0.00 in0.0 mm 0.00 in0.0 mm
06:17 PM 43.4°F6.3°C 30.5°F-0.8°C 60% 1.3 mph WSW2.1 kmh WSW 2.5 mph4.0 kmh 30.16 in1021.3 mb 0.00 in0.0 mm 0.00 in0.0 mm 0.00 in0.0 mm
06:11 PM 43.5°F6.4°C 31.0°F-0.6°C 61% Calm Calm 2.5 mph4.0 kmh 30.16 in1021.3 mb 0.00 in0.0 mm 0.00 in0.0 mm 0.00 in0.0 mm
06:06 PM 43.6°F6.4°C 31.1°F-0.5°C 61% 1.3 mph W2.1 kmh W 2.0 mph3.2 kmh 30.16 in1021.3 mb 0.00 in0.0 mm 0.00 in0.0 mm 0.00 in0.0 mm
06:01 PM 43.8°F6.6°C 30.9°F-0.6°C 60% 1.3 mph WNW2.1 kmh WNW 4.0 mph6.4 kmh 30.15 in1021.0 mb 0.00 in0.0 mm 0.00 in0.0 mm 0.00 in0.0 mm
05:56 PM 43.9°F6.6°C 30.6°F-0.8°C 59% Calm Calm 4.0 mph6.4 kmh 30.15 in1021.0 mb 0.00 in0.0 mm 0.00 in0.0 mm 0.00 in0.0 mm
05:51 PM 44.0°F6.7°C 30.2°F-1.0°C 58% 1.6 mph SSW2.6 kmh SSW 4.0 mph6.4 kmh 30.15 in1021.0 mb 0.00 in0.0 mm 0.00 in0.0 mm 0.00 in0.0 mm
05:46 PM 44.1°F6.7°C 30.3°F-0.9°C 58% 2.5 mph WSW4.0 kmh WSW 4.0 mph6.4 kmh 30.14 in1020.7 mb 0.00 in0.0 mm 0.00 in0.0 mm 0.00 in0.0 mm
05:41 PM 44.1°F6.7°C 30.3°F-0.9°C 58% 1.9 mph SW3.1 kmh SW 8.0 mph12.9 kmh 30.14 in1020.7 mb 0.00 in0.0 mm 0.00 in0.0 mm 0.00 in0.0 mm
05:36 PM 44.3°F6.8°C 30.5°F-0.8°C 58% 2.2 mph SW3.5 kmh SW 8.0 mph12.9 kmh 30.14 in1020.7 mb 0.00 in0.0 mm 0.00 in0.0 mm 0.00 in0.0 mm
05:31 PM 44.4°F6.9°C 30.6°F-0.8°C 58% 1.8 mph WSW2.9 kmh WSW 8.8 mph14.2 kmh 30.13 in1020.3 mb 0.00 in0.0 mm 0.00 in0.0 mm 0.00 in0.0 mm
05:26 PM 44.5°F6.9°C 30.3°F-0.9°C 57% 3.4 mph S5.5 kmh S 8.8 mph14.2 kmh 30.13 in1020.3 mb 0.00 in0.0 mm 0.00 in0.0 mm 0.00 in0.0 mm
05:21 PM 44.6°F7.0°C 30.8°F-0.7°C 58% 1.4 mph WSW2.3 kmh WSW 6.0 mph9.7 kmh 30.13 in1020.3 mb 0.00 in0.0 mm 0.00 in0.0 mm 0.00 in0.0 mm
05:16 PM 44.7°F7.1°C 31.3°F-0.4°C 59% 2.0 mph WSW3.2 kmh WSW 7.5 mph12.1 kmh 30.13 in1020.3 mb 0.00 in0.0 mm 0.00 in0.0 mm 0.00 in0.0 mm
05:11 PM 44.9°F7.2°C 31.1°F-0.5°C 58% 2.6 mph SSW4.2 kmh SSW 7.5 mph12.1 kmh 30.13 in1020.3 mb 0.00 in0.0 mm 0.00 in0.0 mm 0.00 in0.0 mm
05:06 PM 45.1°F7.3°C 31.3°F-0.4°C 58% 1.3 mph SW2.1 kmh SW 7.5 mph12.1 kmh 30.12 in1020.0 mb 0.00 in0.0 mm 0.00 in0.0 mm 0.00 in0.0 mm
05:01 PM 45.3°F7.4°C 31.0°F-0.6°C 57% 3.2 mph WSW5.1 kmh WSW 7.5 mph12.1 kmh 30.12 in1020.0 mb 0.00 in0.0 mm 0.00 in0.0 mm 0.00 in0.0 mm
04:56 PM 45.4°F7.4°C 30.7°F-0.7°C 56% 1.9 mph WSW3.1 kmh WSW 7.5 mph12.1 kmh 30.11 in1019.6 mb 0.00 in0.0 mm 0.00 in0.0 mm 0.00 in0.0 mm
04:51 PM 45.6°F7.6°C 30.8°F-0.7°C 56% 2.7 mph SW4.3 kmh SW 8.8 mph14.2 kmh 30.11 in1019.6 mb 0.00 in0.0 mm 0.00 in0.0 mm 0.00 in0.0 mm
04:46 PM 45.8°F7.7°C 30.6°F-0.8°C 55% 1.8 mph SW2.9 kmh SW 8.8 mph14.2 kmh 30.11 in1019.6 mb 0.00 in0.0 mm 0.00 in0.0 mm 0.00 in0.0 mm
04:41 PM 45.9°F7.7°C 31.1°F-0.5°C 56% 2.1 mph SW3.4 kmh SW 6.3 mph10.1 kmh 30.11 in1019.6 mb 0.00 in0.0 mm 0.00 in0.0 mm 0.00 in0.0 mm
04:36 PM 46.1°F7.8°C 31.3°F-0.4°C 56% 2.4 mph SW3.9 kmh SW 7.5 mph12.1 kmh 30.10 in1019.3 mb 0.00 in0.0 mm 0.00 in0.0 mm 0.00 in0.0 mm
04:31 PM 46.3°F7.9°C 31.0°F-0.6°C 55% 2.7 mph SW4.3 kmh SW 7.5 mph12.1 kmh 30.10 in1019.3 mb 0.00 in0.0 mm 0.00 in0.0 mm 0.00 in0.0 mm
04:26 PM 46.4°F8.0°C 31.1°F-0.5°C 55% 1.6 mph SW2.6 kmh SW 7.0 mph11.3 kmh 30.10 in1019.3 mb 0.00 in0.0 mm 0.00 in0.0 mm 0.00 in0.0 mm
04:21 PM 46.5°F8.1°C 30.8°F-0.7°C 54% 2.4 mph SW3.9 kmh SW 7.0 mph11.3 kmh 30.09 in1019.0 mb 0.00 in0.0 mm 0.00 in0.0 mm 0.00 in0.0 mm
04:16 PM 46.7°F8.2°C 31.0°F-0.6°C 54% 2.2 mph SW3.5 kmh SW 8.8 mph14.2 kmh 30.09 in1019.0 mb 0.00 in0.0 mm 0.00 in0.0 mm 0.00 in0.0 mm
04:11 PM 46.9°F8.3°C 31.1°F-0.5°C 54% 3.2 mph SW5.1 kmh SW 8.8 mph14.2 kmh 30.08 in1018.6 mb 0.00 in0.0 mm 0.00 in0.0 mm 0.00 in0.0 mm
04:06 PM 47.1°F8.4°C 31.3°F-0.4°C 54% 1.5 mph WSW2.4 kmh WSW 8.8 mph14.2 kmh 30.08 in1018.6 mb 0.00 in0.0 mm 0.00 in0.0 mm 0.00 in0.0 mm
04:01 PM 47.3°F8.5°C 31.5°F-0.3°C 54% 2.5 mph WSW4.0 kmh WSW 8.8 mph14.2 kmh 30.08 in1018.6 mb 0.00 in0.0 mm 0.00 in0.0 mm 0.00 in0.0 mm
03:56 PM 47.4°F8.6°C 31.1°F-0.5°C 53% 2.7 mph SW4.3 kmh SW 8.0 mph12.9 kmh 30.07 in1018.3 mb 0.00 in0.0 mm 0.00 in0.0 mm 0.00 in0.0 mm
03:51 PM 47.6°F8.7°C 31.3°F-0.4°C 53% 2.8 mph SW4.5 kmh SW 8.8 mph14.2 kmh 30.07 in1018.3 mb 0.00 in0.0 mm 0.00 in0.0 mm 0.00 in0.0 mm
03:46 PM 47.7°F8.7°C 30.9°F-0.6°C 52% 2.9 mph SW4.7 kmh SW 8.8 mph14.2 kmh 30.07 in1018.3 mb 0.00 in0.0 mm 0.00 in0.0 mm 0.00 in0.0 mm
03:41 PM 47.9°F8.8°C 32.1°F0.1°C 54% 1.6 mph WSW2.6 kmh WSW 6.3 mph10.1 kmh 30.07 in1018.3 mb 0.00 in0.0 mm 0.00 in0.0 mm 0.00 in0.0 mm
03:36 PM 48.3°F9.1°C 32.0°F0.0°C 53% 2.8 mph SW4.5 kmh SW 5.0 mph8.0 kmh 30.06 in1017.9 mb 0.00 in0.0 mm 0.00 in0.0 mm 0.00 in0.0 mm
03:31 PM 48.5°F9.2°C 32.2°F0.1°C 53% 1.3 mph SSW2.1 kmh SSW 5.0 mph8.0 kmh 30.06 in1017.9 mb 0.00 in0.0 mm 0.00 in0.0 mm 0.00 in0.0 mm
03:26 PM 48.7°F9.3°C 31.9°F-0.1°C 52% 1.8 mph SW2.9 kmh SW 4.0 mph6.4 kmh 30.06 in1017.9 mb 0.00 in0.0 mm 0.00 in0.0 mm 0.00 in0.0 mm
03:21 PM 48.8°F9.3°C 31.9°F-0.1°C 52% 2.0 mph WSW3.2 kmh WSW 4.0 mph6.4 kmh 30.05 in1017.6 mb 0.00 in0.0 mm 0.00 in0.0 mm 0.00 in0.0 mm
03:16 PM 48.8°F9.3°C 31.9°F-0.1°C 52% 1.6 mph SW2.6 kmh SW 7.0 mph11.3 kmh 30.05 in1017.6 mb 0.00 in0.0 mm 0.00 in0.0 mm 0.00 in0.0 mm
03:11 PM 48.9°F9.4°C 31.5°F-0.3°C 51% 2.0 mph SW3.2 kmh SW 8.8 mph14.2 kmh 30.05 in1017.6 mb 0.00 in0.0 mm 0.00 in0.0 mm 0.00 in0.0 mm
03:06 PM 48.9°F9.4°C 31.5°F-0.3°C 51% 3.0 mph S4.8 kmh S 8.8 mph14.2 kmh 30.05 in1017.6 mb 0.00 in0.0 mm 0.00 in0.0 mm 0.00 in0.0 mm
03:01 PM 49.0°F9.4°C 31.6°F-0.2°C 51% 1.8 mph SW2.9 kmh SW 6.0 mph9.7 kmh 30.05 in1017.6 mb 0.00 in0.0 mm 0.00 in0.0 mm 0.00 in0.0 mm
02:56 PM 49.2°F9.6°C 31.8°F-0.1°C 51% 2.5 mph S4.0 kmh S 6.0 mph9.7 kmh 30.03 in1016.9 mb 0.00 in0.0 mm 0.00 in0.0 mm 0.00 in0.0 mm
02:51 PM 49.2°F9.6°C 32.3°F0.2°C 52% 2.1 mph WSW3.4 kmh WSW 7.5 mph12.1 kmh 30.03 in1016.9 mb 0.00 in0.0 mm 0.00 in0.0 mm 0.00 in0.0 mm
02:46 PM 49.2°F9.6°C 31.8°F-0.1°C 51% 2.3 mph S3.7 kmh S 7.5 mph12.1 kmh 30.03 in1016.9 mb 0.00 in0.0 mm 0.00 in0.0 mm 0.00 in0.0 mm
02:41 PM 49.2°F9.6°C 31.8°F-0.1°C 51% 2.0 mph SW3.2 kmh SW 6.3 mph10.1 kmh 30.03 in1016.9 mb 0.00 in0.0 mm 0.00 in0.0 mm 0.00 in0.0 mm
02:36 PM 49.0°F9.4°C 31.6°F-0.2°C 51% 2.1 mph SSW3.4 kmh SSW 7.5 mph12.1 kmh 30.03 in1016.9 mb 0.00 in0.0 mm 0.00 in0.0 mm 0.00 in0.0 mm
02:31 PM 48.9°F9.4°C 31.0°F-0.6°C 50% 2.8 mph SW4.5 kmh SW 7.5 mph12.1 kmh 30.03 in1016.9 mb 0.00 in0.0 mm 0.00 in0.0 mm 0.00 in0.0 mm
02:26 PM 49.0°F9.4°C 32.6°F0.3°C 53% 1.8 mph S2.9 kmh S 6.0 mph9.7 kmh 30.03 in1016.9 mb 0.00 in0.0 mm 0.00 in0.0 mm 0.00 in0.0 mm
02:21 PM 49.0°F9.4°C 32.1°F0.1°C 52% 1.9 mph S3.1 kmh S 6.3 mph10.1 kmh 30.03 in1016.9 mb 0.00 in0.0 mm 0.00 in0.0 mm 0.00 in0.0 mm
02:16 PM 49.1°F9.5°C 31.7°F-0.2°C 51% 2.0 mph SW3.2 kmh SW 6.3 mph10.1 kmh 30.03 in1016.9 mb 0.00 in0.0 mm 0.00 in0.0 mm 0.00 in0.0 mm
02:11 PM 49.2°F9.6°C 32.3°F0.2°C 52% 1.4 mph SSW2.3 kmh SSW 7.0 mph11.3 kmh 30.03 in1016.9 mb 0.00 in0.0 mm 0.00 in0.0 mm 0.00 in0.0 mm
02:06 PM 49.1°F9.5°C 32.2°F0.1°C 52% 1.8 mph S2.9 kmh S 7.0 mph11.3 kmh 30.03 in1016.9 mb 0.00 in0.0 mm 0.00 in0.0 mm 0.00 in0.0 mm
02:01 PM 48.9°F9.4°C 31.5°F-0.3°C 51% 2.3 mph SW3.7 kmh SW 8.8 mph14.2 kmh 30.03 in1016.9 mb 0.00 in0.0 mm 0.00 in0.0 mm 0.00 in0.0 mm
01:56 PM 48.9°F9.4°C 31.5°F-0.3°C 51% 2.4 mph SSW3.9 kmh SSW 8.8 mph14.2 kmh 30.03 in1016.9 mb 0.00 in0.0 mm 0.00 in0.0 mm 0.00 in0.0 mm
01:51 PM 49.0°F9.4°C 31.1°F-0.5°C 50% 2.7 mph WSW4.3 kmh WSW 5.0 mph8.0 kmh 30.03 in1016.9 mb 0.00 in0.0 mm 0.00 in0.0 mm 0.00 in0.0 mm
01:46 PM 49.1°F9.5°C 31.7°F-0.2°C 51% 1.8 mph WSW2.9 kmh WSW 6.3 mph10.1 kmh 30.03 in1016.9 mb 0.00 in0.0 mm 0.00 in0.0 mm 0.00 in0.0 mm
01:41 PM 49.3°F9.6°C 31.4°F-0.3°C 50% 1.9 mph SSW3.1 kmh SSW 8.0 mph12.9 kmh 30.03 in1016.9 mb 0.00 in0.0 mm 0.00 in0.0 mm 0.00 in0.0 mm
01:36 PM 49.0°F9.4°C 32.6°F0.3°C 53% 2.0 mph SSW3.2 kmh SSW 8.0 mph12.9 kmh 30.03 in1016.9 mb 0.00 in0.0 mm 0.00 in0.0 mm 0.00 in0.0 mm
01:31 PM 48.6°F9.2°C 32.2°F0.1°C 53% 3.2 mph SSE5.1 kmh SSE 10.0 mph16.1 kmh 30.03 in1016.9 mb 0.00 in0.0 mm 0.00 in0.0 mm 0.00 in0.0 mm
01:26 PM 48.6°F9.2°C 32.2°F0.1°C 53% 2.2 mph S3.5 kmh S 10.0 mph16.1 kmh 30.03 in1016.9 mb 0.00 in0.0 mm 0.00 in0.0 mm 0.00 in0.0 mm
01:21 PM 49.0°F9.4°C 32.1°F0.1°C 52% 2.9 mph SSE4.7 kmh SSE 6.3 mph10.1 kmh 30.03 in1016.9 mb 0.00 in0.0 mm 0.00 in0.0 mm 0.00 in0.0 mm
01:15 PM 49.2°F9.6°C 32.3°F0.2°C 52% 2.3 mph SE3.7 kmh SE 5.0 mph8.0 kmh 30.03 in1016.9 mb 0.00 in0.0 mm 0.00 in0.0 mm 0.00 in0.0 mm
01:10 PM 48.9°F9.4°C 31.5°F-0.3°C 51% 2.3 mph WSW3.7 kmh WSW 7.0 mph11.3 kmh 30.03 in1016.9 mb 0.00 in0.0 mm 0.00 in0.0 mm 0.00 in0.0 mm
01:05 PM 48.1°F8.9°C 31.8°F-0.1°C 53% 2.3 mph SW3.7 kmh SW 9.0 mph14.5 kmh 30.03 in1016.9 mb 0.00 in0.0 mm 0.00 in0.0 mm 0.00 in0.0 mm
01:00 PM 47.9°F8.8°C 32.1°F0.1°C 54% 2.9 mph S4.7 kmh S 9.0 mph14.5 kmh 30.05 in1017.6 mb 0.00 in0.0 mm 0.00 in0.0 mm 0.00 in0.0 mm
12:55 PM 48.2°F9.0°C 31.9°F-0.1°C 53% 2.5 mph SSW4.0 kmh SSW 11.3 mph18.2 kmh 30.05 in1017.6 mb 0.00 in0.0 mm 0.00 in0.0 mm 0.00 in0.0 mm
12:50 PM 48.3°F9.1°C 31.5°F-0.3°C 52% 6.5 mph SSE10.5 kmh SSE 11.3 mph18.2 kmh 30.05 in1017.6 mb 0.00 in0.0 mm 0.00 in0.0 mm 0.00 in0.0 mm
12:45 PM 48.3°F9.1°C 31.0°F-0.6°C 51% 4.9 mph SSE7.9 kmh SSE 8.8 mph14.2 kmh 30.05 in1017.6 mb 0.00 in0.0 mm 0.00 in0.0 mm 0.00 in0.0 mm
12:40 PM 48.4°F9.1°C 31.1°F-0.5°C 51% 4.5 mph SSE7.2 kmh SSE 7.5 mph12.1 kmh 30.05 in1017.6 mb 0.00 in0.0 mm 0.00 in0.0 mm 0.00 in0.0 mm
12:35 PM 48.7°F9.3°C 31.4°F-0.3°C 51% 4.3 mph SSE6.9 kmh SSE 7.5 mph12.1 kmh 30.05 in1017.6 mb 0.00 in0.0 mm 0.00 in0.0 mm 0.00 in0.0 mm
12:30 PM 48.6°F9.2°C 31.3°F-0.4°C 51% 1.7 mph S2.7 kmh S 6.0 mph9.7 kmh 30.05 in1017.6 mb 0.00 in0.0 mm 0.00 in0.0 mm 0.00 in0.0 mm
12:25 PM 48.5°F9.2°C 31.2°F-0.4°C 51% 1.8 mph S2.9 kmh S 3.8 mph6.1 kmh 30.05 in1017.6 mb 0.00 in0.0 mm 0.00 in0.0 mm 0.00 in0.0 mm
12:20 PM 47.8°F8.8°C 31.5°F-0.3°C 53% 2.3 mph WSW3.7 kmh WSW 5.0 mph8.0 kmh 30.05 in1017.6 mb 0.00 in0.0 mm 0.00 in0.0 mm 0.00 in0.0 mm
12:15 PM 47.8°F8.8°C 31.5°F-0.3°C 53% 1.5 mph SW2.4 kmh SW 5.0 mph8.0 kmh 30.06 in1017.9 mb 0.00 in0.0 mm 0.00 in0.0 mm 0.00 in0.0 mm
12:10 PM 47.9°F8.8°C 31.6°F-0.2°C 53% 1.3 mph WSW2.1 kmh WSW 6.3 mph10.1 kmh 30.06 in1017.9 mb 0.00 in0.0 mm 0.00 in0.0 mm 0.00 in0.0 mm
12:05 PM 47.8°F8.8°C 31.0°F-0.6°C 52% 1.9 mph S3.1 kmh S 8.0 mph12.9 kmh 30.06 in1017.9 mb 0.00 in0.0 mm 0.00 in0.0 mm 0.00 in0.0 mm
12:00 PM 47.8°F8.8°C 31.0°F-0.6°C 52% 1.5 mph SSW2.4 kmh SSW 9.0 mph14.5 kmh 30.06 in1017.9 mb 0.00 in0.0 mm 0.00 in0.0 mm 0.00 in0.0 mm
11:55 AM 47.8°F8.8°C 31.0°F-0.6°C 52% 3.7 mph S6.0 kmh S 10.0 mph16.1 kmh 30.06 in1017.9 mb 0.00 in0.0 mm 0.00 in0.0 mm 0.00 in0.0 mm
11:50 AM 48.0°F8.9°C 31.2°F-0.4°C 52% 4.1 mph S6.6 kmh S 10.0 mph16.1 kmh 30.06 in1017.9 mb 0.00 in0.0 mm 0.00 in0.0 mm 0.00 in0.0 mm
11:45 AM 48.5°F9.2°C 31.2°F-0.4°C 51% 4.4 mph S7.1 kmh S 11.3 mph18.2 kmh 30.06 in1017.9 mb 0.00 in0.0 mm 0.00 in0.0 mm 0.00 in0.0 mm
11:40 AM 49.0°F9.4°C 31.6°F-0.2°C 51% 2.7 mph S4.3 kmh S 11.3 mph18.2 kmh 30.06 in1017.9 mb 0.00 in0.0 mm 0.00 in0.0 mm 0.00 in0.0 mm
11:35 AM 49.6°F9.8°C 31.7°F-0.2°C 50% 6.0 mph S9.7 kmh S 8.8 mph14.2 kmh 30.06 in1017.9 mb 0.00 in0.0 mm 0.00 in0.0 mm 0.00 in0.0 mm
11:30 AM 49.9°F9.9°C 33.0°F0.6°C 52% 3.0 mph S4.8 kmh S 8.8 mph14.2 kmh 30.06 in1017.9 mb 0.00 in0.0 mm 0.00 in0.0 mm 0.00 in0.0 mm
11:25 AM 49.9°F9.9°C 33.0°F0.6°C 52% 3.3 mph SW5.3 kmh SW 8.8 mph14.2 kmh 30.06 in1017.9 mb 0.00 in0.0 mm 0.00 in0.0 mm 0.00 in0.0 mm
11:20 AM 49.0°F9.4°C 33.1°F0.6°C 54% 2.1 mph S3.4 kmh S 8.8 mph14.2 kmh 30.06 in1017.9 mb 0.00 in0.0 mm 0.00 in0.0 mm 0.00 in0.0 mm
11:15 AM 49.0°F9.4°C 31.6°F-0.2°C 51% 3.8 mph SW6.1 kmh SW 8.8 mph14.2 kmh 30.06 in1017.9 mb 0.00 in0.0 mm 0.00 in0.0 mm 0.00 in0.0 mm
11:10 AM 48.6°F9.2°C 32.7°F0.4°C 54% 3.4 mph S5.5 kmh S 8.8 mph14.2 kmh 30.06 in1017.9 mb 0.00 in0.0 mm 0.00 in0.0 mm 0.00 in0.0 mm
11:05 AM 48.3°F9.1°C 32.0°F0.0°C 53% 3.0 mph S4.8 kmh S 10.0 mph16.1 kmh 30.06 in1017.9 mb 0.00 in0.0 mm 0.00 in0.0 mm 0.00 in0.0 mm
11:00 AM 48.2°F9.0°C 32.4°F0.2°C 54% 4.9 mph S7.9 kmh S 10.0 mph16.1 kmh 30.06 in1017.9 mb 0.00 in0.0 mm 0.00 in0.0 mm 0.00 in0.0 mm
10:55 AM 48.4°F9.1°C 32.1°F0.1°C 53% 2.9 mph S4.7 kmh S 7.0 mph11.3 kmh 30.06 in1017.9 mb 0.00 in0.0 mm 0.00 in0.0 mm 0.00 in0.0 mm
10:50 AM 47.7°F8.7°C 32.4°F0.2°C 55% 1.9 mph SW3.1 kmh SW 8.8 mph14.2 kmh 30.06 in1017.9 mb 0.00 in0.0 mm 0.00 in0.0 mm 0.00 in0.0 mm
10:45 AM 47.1°F8.4°C 31.3°F-0.4°C 54% 2.1 mph SSW3.4 kmh SSW 8.8 mph14.2 kmh 30.06 in1017.9 mb 0.00 in0.0 mm 0.00 in0.0 mm 0.00 in0.0 mm
10:40 AM 47.6°F8.7°C 31.3°F-0.4°C 53% 4.6 mph SSE7.4 kmh SSE 8.8 mph14.2 kmh 30.05 in1017.6 mb 0.00 in0.0 mm 0.00 in0.0 mm 0.00 in0.0 mm
10:35 AM 48.2°F9.0°C 31.4°F-0.3°C 52% 5.2 mph S8.4 kmh S 10.0 mph16.1 kmh 30.05 in1017.6 mb 0.00 in0.0 mm 0.00 in0.0 mm 0.00 in0.0 mm
10:30 AM 48.3°F9.1°C 32.0°F0.0°C 53% 2.4 mph SW3.9 kmh SW 10.0 mph16.1 kmh 30.05 in1017.6 mb 0.00 in0.0 mm 0.00 in0.0 mm 0.00 in0.0 mm
10:25 AM 47.7°F8.7°C 32.4°F0.2°C 55% 3.1 mph S5.0 kmh S 9.0 mph14.5 kmh 30.05 in1017.6 mb 0.00 in0.0 mm 0.00 in0.0 mm 0.00 in0.0 mm
10:20 AM 47.0°F8.3°C 32.2°F0.1°C 56% 4.0 mph SSE6.4 kmh SSE 13.0 mph20.9 kmh 30.05 in1017.6 mb 0.00 in0.0 mm 0.00 in0.0 mm 0.00 in0.0 mm
10:15 AM 46.3°F7.9°C 31.5°F-0.3°C 56% 3.5 mph S5.6 kmh S 13.0 mph20.9 kmh 30.05 in1017.6 mb 0.00 in0.0 mm 0.00 in0.0 mm 0.00 in0.0 mm
10:10 AM 46.0°F7.8°C 31.7°F-0.2°C 57% 4.8 mph S7.7 kmh S 13.0 mph20.9 kmh 30.03 in1016.9 mb 0.00 in0.0 mm 0.00 in0.0 mm 0.00 in0.0 mm
10:05 AM 45.7°F7.6°C 30.9°F-0.6°C 56% 5.3 mph S8.5 kmh S 13.8 mph22.2 kmh 30.03 in1016.9 mb 0.00 in0.0 mm 0.00 in0.0 mm 0.00 in0.0 mm
10:00 AM 45.3°F7.4°C 30.6°F-0.8°C 56% 7.9 mph SSE12.7 kmh SSE 13.8 mph22.2 kmh 30.03 in1016.9 mb 0.00 in0.0 mm 0.00 in0.0 mm 0.00 in0.0 mm
09:55 AM 45.2°F7.3°C 30.9°F-0.6°C 57% 5.3 mph S8.5 kmh S 10.0 mph16.1 kmh 30.03 in1016.9 mb 0.00 in0.0 mm 0.00 in0.0 mm 0.00 in0.0 mm
09:50 AM 44.8°F7.1°C 31.0°F-0.6°C 58% 4.3 mph S6.9 kmh S 12.5 mph20.1 kmh 30.03 in1016.9 mb 0.00 in0.0 mm 0.00 in0.0 mm 0.00 in0.0 mm
09:45 AM 44.5°F6.9°C 30.7°F-0.7°C 58% 3.5 mph S5.6 kmh S 12.5 mph20.1 kmh 30.03 in1016.9 mb 0.00 in0.0 mm 0.00 in0.0 mm 0.00 in0.0 mm
09:40 AM 44.2°F6.8°C 30.8°F-0.7°C 59% 5.5 mph S8.9 kmh S 11.3 mph18.2 kmh 30.03 in1016.9 mb 0.00 in0.0 mm 0.00 in0.0 mm 0.00 in0.0 mm
09:35 AM 43.9°F6.6°C 30.6°F-0.8°C 59% 4.8 mph S7.7 kmh S 10.0 mph16.1 kmh 30.03 in1016.9 mb 0.00 in0.0 mm 0.00 in0.0 mm 0.00 in0.0 mm
09:30 AM 43.7°F6.5°C 30.8°F-0.7°C 60% 3.2 mph S5.1 kmh S 10.0 mph16.1 kmh 30.03 in1016.9 mb 0.00 in0.0 mm 0.00 in0.0 mm 0.00 in0.0 mm
09:25 AM 43.6°F6.4°C 31.1°F-0.5°C 61% 3.4 mph S5.5 kmh S 10.0 mph16.1 kmh 30.03 in1016.9 mb 0.00 in0.0 mm 0.00 in0.0 mm 0.00 in0.0 mm
09:20 AM 43.4°F6.3°C 30.5°F-0.8°C 60% 4.9 mph S7.9 kmh S 12.5 mph20.1 kmh 30.03 in1016.9 mb 0.00 in0.0 mm 0.00 in0.0 mm 0.00 in0.0 mm
09:15 AM 43.3°F6.3°C 30.8°F-0.7°C 61% 6.6 mph SSE10.6 kmh SSE 12.5 mph20.1 kmh 30.03 in1016.9 mb 0.00 in0.0 mm 0.00 in0.0 mm 0.00 in0.0 mm
09:10 AM 43.2°F6.2°C 30.7°F-0.7°C 61% 4.6 mph S7.4 kmh S 13.8 mph22.2 kmh 30.02 in1016.6 mb 0.00 in0.0 mm 0.00 in0.0 mm 0.00 in0.0 mm
09:05 AM 43.1°F6.2°C 31.0°F-0.6°C 62% 4.9 mph S7.9 kmh S 13.8 mph22.2 kmh 30.02 in1016.6 mb 0.00 in0.0 mm 0.00 in0.0 mm 0.00 in0.0 mm
09:00 AM 42.8°F6.0°C 30.4°F-0.9°C 61% 7.9 mph S12.7 kmh S 13.8 mph22.2 kmh 30.02 in1016.6 mb 0.00 in0.0 mm 0.00 in0.0 mm 0.00 in0.0 mm
08:55 AM 42.5°F5.8°C 30.9°F-0.6°C 63% 5.3 mph S8.5 kmh S 10.0 mph16.1 kmh 30.02 in1016.6 mb 0.00 in0.0 mm 0.00 in0.0 mm 0.00 in0.0 mm
08:50 AM 42.1°F5.6°C 30.5°F-0.8°C 63% 3.2 mph SSE5.1 kmh SSE 10.0 mph16.1 kmh 30.02 in1016.6 mb 0.00 in0.0 mm 0.00 in0.0 mm 0.00 in0.0 mm
08:45 AM 42.0°F5.6°C 30.4°F-0.9°C 63% 2.3 mph SSE3.7 kmh SSE 7.0 mph11.3 kmh 30.01 in1016.3 mb 0.00 in0.0 mm 0.00 in0.0 mm 0.00 in0.0 mm
08:40 AM 42.1°F5.6°C 30.5°F-0.8°C 63% 1.4 mph SE2.3 kmh SE 7.0 mph11.3 kmh 30.01 in1016.3 mb 0.00 in0.0 mm 0.00 in0.0 mm 0.00 in0.0 mm
08:34 AM 42.2°F5.7°C 30.2°F-1.0°C 62% 3.0 mph S4.8 kmh S 7.5 mph12.1 kmh 30.01 in1016.3 mb 0.00 in0.0 mm 0.00 in0.0 mm 0.00 in0.0 mm
08:29 AM 42.0°F5.6°C 30.0°F-1.1°C 62% 2.5 mph S4.0 kmh S 7.5 mph12.1 kmh 30.01 in1016.3 mb 0.00 in0.0 mm 0.00 in0.0 mm 0.00 in0.0 mm
08:24 AM 41.9°F5.5°C 30.3°F-0.9°C 63% 3.3 mph SSE5.3 kmh SSE 10.0 mph16.1 kmh 30.01 in1016.3 mb 0.00 in0.0 mm 0.00 in0.0 mm 0.00 in0.0 mm
08:19 AM 41.7°F5.4°C 30.1°F-1.1°C 63% 2.9 mph SE4.7 kmh SE 10.0 mph16.1 kmh 30.00 in1015.9 mb 0.00 in0.0 mm 0.00 in0.0 mm 0.00 in0.0 mm
08:14 AM 41.6°F5.3°C 29.6°F-1.3°C 62% 3.2 mph S5.1 kmh S 9.0 mph14.5 kmh 30.00 in1015.9 mb 0.00 in0.0 mm 0.00 in0.0 mm 0.00 in0.0 mm
08:09 AM 41.9°F5.5°C 29.9°F-1.2°C 62% 2.5 mph SSE4.0 kmh SSE 9.0 mph14.5 kmh 30.00 in1015.9 mb 0.00 in0.0 mm 0.00 in0.0 mm 0.00 in0.0 mm
08:04 AM 42.3°F5.7°C 29.9°F-1.2°C 61% 3.1 mph S5.0 kmh S 11.3 mph18.2 kmh 30.00 in1015.9 mb 0.00 in0.0 mm 0.00 in0.0 mm 0.00 in0.0 mm
07:59 AM 42.4°F5.8°C 29.6°F-1.3°C 60% 4.8 mph S7.7 kmh S 11.3 mph18.2 kmh 30.00 in1015.9 mb 0.00 in0.0 mm 0.00 in0.0 mm 0.00 in0.0 mm
07:54 AM 42.4°F5.8°C 29.6°F-1.3°C 60% 3.2 mph S5.1 kmh S 10.0 mph16.1 kmh 30.00 in1015.9 mb 0.00 in0.0 mm 0.00 in0.0 mm 0.00 in0.0 mm
07:49 AM 42.6°F5.9°C 29.3°F-1.5°C 59% 4.2 mph S6.8 kmh S 11.3 mph18.2 kmh 29.99 in1015.6 mb 0.00 in0.0 mm 0.00 in0.0 mm 0.00 in0.0 mm
07:44 AM 42.8°F6.0°C 29.5°F-1.4°C 59% 5.5 mph S8.9 kmh S 14.0 mph22.5 kmh 29.99 in1015.6 mb 0.00 in0.0 mm 0.00 in0.0 mm 0.00 in0.0 mm
07:39 AM 42.9°F6.1°C 29.6°F-1.3°C 59% 6.4 mph S10.3 kmh S 14.0 mph22.5 kmh 29.99 in1015.6 mb 0.00 in0.0 mm 0.00 in0.0 mm 0.00 in0.0 mm
07:34 AM 43.0°F6.1°C 29.3°F-1.5°C 58% 6.6 mph S10.6 kmh S 17.5 mph28.2 kmh 29.99 in1015.6 mb 0.00 in0.0 mm 0.00 in0.0 mm 0.00 in0.0 mm
07:29 AM 43.1°F6.2°C 29.4°F-1.4°C 58% 4.9 mph S7.9 kmh S 17.5 mph28.2 kmh 29.99 in1015.6 mb 0.00 in0.0 mm 0.00 in0.0 mm 0.00 in0.0 mm
07:24 AM 43.2°F6.2°C 29.5°F-1.4°C 58% 8.7 mph S14.0 kmh S 16.3 mph26.2 kmh 29.98 in1015.2 mb 0.00 in0.0 mm 0.00 in0.0 mm 0.00 in0.0 mm
07:19 AM 43.1°F6.2°C 29.8°F-1.2°C 59% 7.1 mph S11.4 kmh S 15.0 mph24.1 kmh 29.98 in1015.2 mb 0.00 in0.0 mm 0.00 in0.0 mm 0.00 in0.0 mm
07:14 AM 43.1°F6.2°C 29.8°F-1.2°C 59% 6.7 mph SSE10.8 kmh SSE 15.0 mph24.1 kmh 29.98 in1015.2 mb 0.00 in0.0 mm 0.00 in0.0 mm 0.00 in0.0 mm
07:09 AM 43.1°F6.2°C 29.8°F-1.2°C 59% 7.2 mph S11.6 kmh S 12.5 mph20.1 kmh 29.97 in1014.9 mb 0.00 in0.0 mm 0.00 in0.0 mm 0.00 in0.0 mm
07:04 AM 43.1°F6.2°C 29.8°F-1.2°C 59% 6.6 mph SSE10.6 kmh SSE 12.5 mph20.1 kmh 29.97 in1014.9 mb 0.00 in0.0 mm 0.00 in0.0 mm 0.00 in0.0 mm
06:59 AM 43.2°F6.2°C 30.3°F-0.9°C 60% 4.9 mph SE7.9 kmh SE 11.3 mph18.2 kmh 29.97 in1014.9 mb 0.00 in0.0 mm 0.00 in0.0 mm 0.00 in0.0 mm
06:54 AM 43.1°F6.2°C 30.2°F-1.0°C 60% 5.4 mph SSE8.7 kmh SSE 10.0 mph16.1 kmh 29.97 in1014.9 mb 0.00 in0.0 mm 0.00 in0.0 mm 0.00 in0.0 mm
06:49 AM 43.3°F6.3°C 30.4°F-0.9°C 60% 3.8 mph S6.1 kmh S 12.5 mph20.1 kmh 29.97 in1014.9 mb 0.00 in0.0 mm 0.00 in0.0 mm 0.00 in0.0 mm
06:44 AM 43.6°F6.4°C 30.3°F-0.9°C 59% 3.8 mph S6.1 kmh S 12.5 mph20.1 kmh 29.97 in1014.9 mb 0.00 in0.0 mm 0.00 in0.0 mm 0.00 in0.0 mm
06:39 AM 43.8°F6.6°C 30.9°F-0.6°C 60% 4.9 mph SSE7.9 kmh SSE 10.0 mph16.1 kmh 29.97 in1014.9 mb 0.00 in0.0 mm 0.00 in0.0 mm 0.00 in0.0 mm
06:34 AM 44.1°F6.7°C 30.7°F-0.7°C 59% 3.4 mph S5.5 kmh S 13.0 mph20.9 kmh 29.95 in1014.2 mb 0.00 in0.0 mm 0.00 in0.0 mm 0.00 in0.0 mm
06:29 AM 44.4°F6.9°C 30.6°F-0.8°C 58% 5.6 mph S9.0 kmh S 13.0 mph20.9 kmh 29.95 in1014.2 mb 0.00 in0.0 mm 0.00 in0.0 mm 0.00 in0.0 mm
06:24 AM 44.7°F7.1°C 30.9°F-0.6°C 58% 3.1 mph S5.0 kmh S 17.0 mph27.4 kmh 29.95 in1014.2 mb 0.00 in0.0 mm 0.00 in0.0 mm 0.00 in0.0 mm
06:19 AM 45.0°F7.2°C 31.2°F-0.4°C 58% 6.7 mph S10.8 kmh S 21.0 mph33.8 kmh 29.95 in1014.2 mb 0.00 in0.0 mm 0.00 in0.0 mm 0.00 in0.0 mm
06:14 AM 45.2°F7.3°C 30.5°F-0.8°C 56% 5.8 mph S9.3 kmh S 21.0 mph33.8 kmh 29.95 in1014.2 mb 0.00 in0.0 mm 0.00 in0.0 mm 0.00 in0.0 mm
06:09 AM 45.5°F7.5°C 30.3°F-0.9°C 55% 9.9 mph S15.9 kmh S 21.3 mph34.3 kmh 29.95 in1014.2 mb 0.00 in0.0 mm 0.00 in0.0 mm 0.00 in0.0 mm
06:04 AM 45.5°F7.5°C 30.3°F-0.9°C 55% 11.2 mph S18.0 kmh S 21.3 mph34.3 kmh 29.94 in1013.9 mb 0.00 in0.0 mm 0.00 in0.0 mm 0.00 in0.0 mm
05:59 AM 45.5°F7.5°C 30.7°F-0.7°C 56% 11.3 mph S18.2 kmh S 21.3 mph34.3 kmh 29.94 in1013.9 mb 0.00 in0.0 mm 0.00 in0.0 mm 0.00 in0.0 mm
05:54 AM 45.6°F7.6°C 30.4°F-0.9°C 55% 10.4 mph S16.7 kmh S 21.3 mph34.3 kmh 29.94 in1013.9 mb 0.00 in0.0 mm 0.00 in0.0 mm 0.00 in0.0 mm
05:49 AM 45.7°F7.6°C 30.9°F-0.6°C 56% 9.3 mph S15.0 kmh S 17.5 mph28.2 kmh 29.94 in1013.9 mb 0.00 in0.0 mm 0.00 in0.0 mm 0.00 in0.0 mm
05:44 AM 45.8°F7.7°C 31.0°F-0.6°C 56% 6.7 mph S10.8 kmh S 13.8 mph22.2 kmh 29.93 in1013.5 mb 0.00 in0.0 mm 0.00 in0.0 mm 0.00 in0.0 mm
05:39 AM 46.1°F7.8°C 31.3°F-0.4°C 56% 7.9 mph S12.7 kmh S 13.8 mph22.2 kmh 29.93 in1013.5 mb 0.00 in0.0 mm 0.00 in0.0 mm 0.00 in0.0 mm
05:34 AM 46.3°F7.9°C 31.5°F-0.3°C 56% 4.3 mph S6.9 kmh S 13.8 mph22.2 kmh 29.93 in1013.5 mb 0.00 in0.0 mm 0.00 in0.0 mm 0.00 in0.0 mm
05:29 AM 46.5°F8.1°C 31.2°F-0.4°C 55% 7.0 mph S11.3 kmh S 13.8 mph22.2 kmh 29.93 in1013.5 mb 0.00 in0.0 mm 0.00 in0.0 mm 0.00 in0.0 mm
05:24 AM 46.7°F8.2°C 31.0°F-0.6°C 54% 7.2 mph S11.6 kmh S 14.0 mph22.5 kmh 29.93 in1013.5 mb 0.00 in0.0 mm 0.00 in0.0 mm 0.00 in0.0 mm
05:19 AM 47.3°F8.5°C 31.0°F-0.6°C 53% 7.4 mph S11.9 kmh S 15.0 mph24.1 kmh 29.93 in1013.5 mb 0.00 in0.0 mm 0.00 in0.0 mm 0.00 in0.0 mm
05:14 AM 47.7°F8.7°C 30.9°F-0.6°C 52% 6.2 mph SSE10.0 kmh SSE 16.3 mph26.2 kmh 29.92 in1013.2 mb 0.00 in0.0 mm 0.00 in0.0 mm 0.00 in0.0 mm
05:09 AM 47.9°F8.8°C 30.6°F-0.8°C 51% 10.4 mph S16.7 kmh S 16.3 mph26.2 kmh 29.92 in1013.2 mb 0.00 in0.0 mm 0.00 in0.0 mm 0.00 in0.0 mm
05:04 AM 47.9°F8.8°C 31.1°F-0.5°C 52% 8.9 mph S14.3 kmh S 17.0 mph27.4 kmh 29.92 in1013.2 mb 0.00 in0.0 mm 0.00 in0.0 mm 0.00 in0.0 mm
04:59 AM 48.0°F8.9°C 31.2°F-0.4°C 52% 7.8 mph S12.6 kmh S 23.0 mph37.0 kmh 29.92 in1013.2 mb 0.00 in0.0 mm 0.00 in0.0 mm 0.00 in0.0 mm
04:54 AM 48.4°F9.1°C 31.1°F-0.5°C 51% 5.2 mph SSE8.4 kmh SSE 23.0 mph37.0 kmh 29.92 in1013.2 mb 0.00 in0.0 mm 0.00 in0.0 mm 0.00 in0.0 mm
04:49 AM 48.7°F9.3°C 30.9°F-0.6°C 50% 11.7 mph SSE18.8 kmh SSE 27.5 mph44.3 kmh 29.91 in1012.9 mb 0.00 in0.0 mm 0.00 in0.0 mm 0.00 in0.0 mm
04:44 AM 48.9°F9.4°C 30.5°F-0.8°C 49% 14.5 mph S23.3 kmh S 27.5 mph44.3 kmh 29.91 in1012.9 mb 0.00 in0.0 mm 0.00 in0.0 mm 0.00 in0.0 mm
04:39 AM 49.1°F9.5°C 30.7°F-0.7°C 49% 9.6 mph S15.4 kmh S 20.0 mph32.2 kmh 29.91 in1012.9 mb 0.00 in0.0 mm 0.00 in0.0 mm 0.00 in0.0 mm
04:34 AM 49.2°F9.6°C 30.8°F-0.7°C 49% 10.9 mph S17.5 kmh S 20.0 mph32.2 kmh 29.91 in1012.9 mb 0.00 in0.0 mm 0.00 in0.0 mm 0.00 in0.0 mm
04:29 AM 49.4°F9.7°C 30.5°F-0.8°C 48% 10.9 mph S17.5 kmh S 20.0 mph32.2 kmh 29.90 in1012.5 mb 0.00 in0.0 mm 0.00 in0.0 mm 0.00 in0.0 mm
04:24 AM 49.5°F9.7°C 31.1°F-0.5°C 49% 6.9 mph S11.1 kmh S 15.0 mph24.1 kmh 29.90 in1012.5 mb 0.00 in0.0 mm 0.00 in0.0 mm 0.00 in0.0 mm
04:19 AM 49.7°F9.8°C 30.7°F-0.7°C 48% 9.0 mph S14.5 kmh S 15.0 mph24.1 kmh 29.90 in1012.5 mb 0.00 in0.0 mm 0.00 in0.0 mm 0.00 in0.0 mm
04:13 AM 49.8°F9.9°C 31.4°F-0.3°C 49% 8.7 mph S14.0 kmh S 19.0 mph30.6 kmh 29.90 in1012.5 mb 0.00 in0.0 mm 0.00 in0.0 mm 0.00 in0.0 mm
04:08 AM 49.8°F9.9°C 30.8°F-0.7°C 48% 8.7 mph S14.0 kmh S 20.0 mph32.2 kmh 29.90 in1012.5 mb 0.00 in0.0 mm 0.00 in0.0 mm 0.00 in0.0 mm
04:03 AM 49.9°F9.9°C 30.9°F-0.6°C 48% 13.1 mph S21.1 kmh S 23.8 mph38.3 kmh 29.90 in1012.5 mb 0.00 in0.0 mm 0.00 in0.0 mm 0.00 in0.0 mm
03:58 AM 49.7°F9.8°C 31.3°F-0.4°C 49% 9.8 mph S15.8 kmh S 23.8 mph38.3 kmh 29.90 in1012.5 mb 0.00 in0.0 mm 0.00 in0.0 mm 0.00 in0.0 mm
03:53 AM 49.2°F9.6°C 31.3°F-0.4°C 50% 7.9 mph S12.7 kmh S 12.5 mph20.1 kmh 29.90 in1012.5 mb 0.00 in0.0 mm 0.00 in0.0 mm 0.00 in0.0 mm
03:48 AM 49.2°F9.6°C 31.8°F-0.1°C 51% 6.5 mph S10.5 kmh S 11.0 mph17.7 kmh 29.89 in1012.2 mb 0.00 in0.0 mm 0.00 in0.0 mm 0.00 in0.0 mm
03:43 AM 49.7°F9.8°C 32.8°F0.4°C 52% 3.1 mph SE5.0 kmh SE 13.0 mph20.9 kmh 29.90 in1012.5 mb 0.00 in0.0 mm 0.00 in0.0 mm 0.00 in0.0 mm
03:38 AM 49.8°F9.9°C 31.9°F-0.1°C 50% 5.5 mph S8.9 kmh S 16.0 mph25.7 kmh 29.89 in1012.2 mb 0.00 in0.0 mm 0.00 in0.0 mm 0.00 in0.0 mm
03:33 AM 49.8°F9.9°C 32.4°F0.2°C 51% 8.3 mph S13.4 kmh S 16.3 mph26.2 kmh 29.89 in1012.2 mb 0.00 in0.0 mm 0.00 in0.0 mm 0.00 in0.0 mm
03:28 AM 50.1°F10.1°C 33.2°F0.7°C 52% 6.4 mph SSE10.3 kmh SSE 18.8 mph30.3 kmh 29.89 in1012.2 mb 0.00 in0.0 mm 0.00 in0.0 mm 0.00 in0.0 mm
03:23 AM 50.5°F10.3°C 32.5°F0.3°C 50% 5.7 mph S9.2 kmh S 18.8 mph30.3 kmh 29.89 in1012.2 mb 0.00 in0.0 mm 0.00 in0.0 mm 0.00 in0.0 mm
03:18 AM 50.4°F10.2°C 32.4°F0.2°C 50% 8.8 mph SSW14.2 kmh SSW 16.0 mph25.7 kmh 29.89 in1012.2 mb 0.00 in0.0 mm 0.00 in0.0 mm 0.00 in0.0 mm
03:13 AM 50.4°F10.2°C 32.9°F0.5°C 51% 7.2 mph S11.6 kmh S 18.8 mph30.3 kmh 29.89 in1012.2 mb 0.00 in0.0 mm 0.00 in0.0 mm 0.00 in0.0 mm
03:08 AM 50.4°F10.2°C 32.9°F0.5°C 51% 7.8 mph SSE12.6 kmh SSE 18.8 mph30.3 kmh 29.88 in1011.9 mb 0.00 in0.0 mm 0.00 in0.0 mm 0.00 in0.0 mm
03:03 AM 50.4°F10.2°C 33.4°F0.8°C 52% 5.1 mph S8.2 kmh S 16.3 mph26.2 kmh 29.88 in1011.9 mb 0.00 in0.0 mm 0.00 in0.0 mm 0.00 in0.0 mm
02:58 AM 50.3°F10.2°C 33.3°F0.7°C 52% 8.1 mph S13.0 kmh S 15.0 mph24.1 kmh 29.88 in1011.9 mb 0.00 in0.0 mm 0.00 in0.0 mm 0.00 in0.0 mm
02:53 AM 50.5°F10.3°C 34.0°F1.1°C 53% 3.8 mph SSE6.1 kmh SSE 12.5 mph20.1 kmh 29.88 in1011.9 mb 0.00 in0.0 mm 0.00 in0.0 mm 0.00 in0.0 mm
02:48 AM 50.7°F10.4°C 34.2°F1.2°C 53% 4.4 mph S7.1 kmh S 12.5 mph20.1 kmh 29.88 in1011.9 mb 0.00 in0.0 mm 0.00 in0.0 mm 0.00 in0.0 mm
02:43 AM 50.9°F10.5°C 34.9°F1.6°C 54% 4.6 mph S7.4 kmh S 13.0 mph20.9 kmh 29.88 in1011.9 mb 0.00 in0.0 mm 0.00 in0.0 mm 0.00 in0.0 mm
02:38 AM 51.4°F10.8°C 35.3°F1.8°C 54% 3.7 mph SSW6.0 kmh SSW 18.0 mph29.0 kmh 29.88 in1011.9 mb 0.00 in0.0 mm 0.00 in0.0 mm 0.00 in0.0 mm
02:33 AM 51.8°F11.0°C 35.2°F1.8°C 53% 5.3 mph S8.5 kmh S 18.0 mph29.0 kmh 29.87 in1011.5 mb 0.00 in0.0 mm 0.00 in0.0 mm 0.00 in0.0 mm
02:28 AM 52.3°F11.3°C 35.7°F2.1°C 53% 6.2 mph SSE10.0 kmh SSE 21.3 mph34.3 kmh 29.87 in1011.5 mb 0.00 in0.0 mm 0.00 in0.0 mm 0.00 in0.0 mm
02:23 AM 52.8°F11.6°C 37.1°F2.8°C 55% 8.4 mph S13.5 kmh S 21.3 mph34.3 kmh 29.87 in1011.5 mb 0.00 in0.0 mm 0.00 in0.0 mm 0.00 in0.0 mm
02:18 AM 53.3°F11.8°C 39.0°F3.9°C 58% 7.0 mph SSE11.3 kmh SSE 18.8 mph30.3 kmh 29.86 in1011.2 mb 0.00 in0.0 mm 0.00 in0.0 mm 0.00 in0.0 mm
02:13 AM 53.9°F12.2°C 40.4°F4.7°C 60% 6.0 mph SSE9.7 kmh SSE 18.8 mph30.3 kmh 29.86 in1011.2 mb 0.00 in0.0 mm 0.00 in0.0 mm 0.00 in0.0 mm
02:08 AM 54.7°F12.6°C 43.7°F6.5°C 66% 6.4 mph S10.3 kmh S 13.8 mph22.2 kmh 29.86 in1011.2 mb 0.00 in0.0 mm 0.00 in0.0 mm 0.00 in0.0 mm
02:03 AM 55.4°F13.0°C 47.3°F8.5°C 74% 7.6 mph S12.2 kmh S 13.8 mph22.2 kmh 29.86 in1011.2 mb 0.00 in0.0 mm 0.00 in0.0 mm 0.00 in0.0 mm
01:58 AM 55.7°F13.2°C 48.3°F9.1°C 76% 7.2 mph S11.6 kmh S 13.0 mph20.9 kmh 29.85 in1010.8 mb 0.00 in0.0 mm 0.00 in0.0 mm 0.00 in0.0 mm
01:53 AM 55.9°F13.3°C 48.2°F9.0°C 75% 6.4 mph S10.3 kmh S 13.0 mph20.9 kmh 29.84 in1010.5 mb 0.00 in0.0 mm 0.00 in0.0 mm 0.00 in0.0 mm
01:48 AM 56.0°F13.3°C 47.9°F8.8°C 74% 6.5 mph SSE10.5 kmh SSE 16.3 mph26.2 kmh 29.84 in1010.5 mb 0.00 in0.0 mm 0.00 in0.0 mm 0.00 in0.0 mm
01:43 AM 56.2°F13.4°C 48.1°F8.9°C 74% 7.7 mph S12.4 kmh S 16.3 mph26.2 kmh 29.84 in1010.5 mb 0.00 in0.0 mm 0.00 in0.0 mm 0.00 in0.0 mm
01:38 AM 56.2°F13.4°C 48.5°F9.2°C 75% 6.5 mph S10.5 kmh S 13.8 mph22.2 kmh 29.84 in1010.5 mb 0.00 in0.0 mm 0.00 in0.0 mm 0.00 in0.0 mm
01:33 AM 56.3°F13.5°C 48.6°F9.2°C 75% 4.0 mph S6.4 kmh S 12.5 mph20.1 kmh 29.84 in1010.5 mb 0.00 in0.0 mm 0.00 in0.0 mm 0.00 in0.0 mm
01:28 AM 56.3°F13.5°C 48.9°F9.4°C 76% 6.0 mph S9.7 kmh S 12.5 mph20.1 kmh 29.84 in1010.5 mb 0.00 in0.0 mm 0.00 in0.0 mm 0.00 in0.0 mm
01:23 AM 56.2°F13.4°C 49.2°F9.6°C 77% 8.0 mph SSE12.9 kmh SSE 12.5 mph20.1 kmh 29.84 in1010.5 mb 0.00 in0.0 mm 0.00 in0.0 mm 0.00 in0.0 mm
01:18 AM 56.0°F13.3°C 49.3°F9.6°C 78% 4.4 mph S7.1 kmh S 11.3 mph18.2 kmh 29.84 in1010.5 mb 0.00 in0.0 mm 0.00 in0.0 mm 0.00 in0.0 mm
01:13 AM 55.9°F13.3°C 49.2°F9.6°C 78% 6.7 mph S10.8 kmh S 10.0 mph16.1 kmh 29.84 in1010.5 mb 0.00 in0.0 mm 0.00 in0.0 mm 0.00 in0.0 mm
01:08 AM 56.1°F13.4°C 49.4°F9.7°C 78% 2.6 mph S4.2 kmh S 11.0 mph17.7 kmh 29.84 in1010.5 mb 0.00 in0.0 mm 0.00 in0.0 mm 0.00 in0.0 mm
01:03 AM 56.5°F13.6°C 49.5°F9.7°C 77% 4.0 mph S6.4 kmh S 12.5 mph20.1 kmh 29.84 in1010.5 mb 0.00 in0.0 mm 0.00 in0.0 mm 0.00 in0.0 mm
12:58 AM 56.9°F13.8°C 49.8°F9.9°C 77% 6.0 mph S9.7 kmh S 13.8 mph22.2 kmh 29.84 in1010.5 mb 0.00 in0.0 mm 0.00 in0.0 mm 0.00 in0.0 mm
12:53 AM 57.0°F13.9°C 50.3°F10.2°C 78% 6.5 mph SSE10.5 kmh SSE 15.0 mph24.1 kmh 29.84 in1010.5 mb 0.00 in0.0 mm 0.00 in0.0 mm 0.00 in0.0 mm
12:48 AM 57.0°F13.9°C 50.6°F10.3°C 79% 4.7 mph S7.6 kmh S 15.0 mph24.1 kmh 29.84 in1010.5 mb 0.00 in0.0 mm 0.00 in0.0 mm 0.00 in0.0 mm
12:43 AM 57.6°F14.2°C 51.2°F10.7°C 79% 3.5 mph S5.6 kmh S 17.5 mph28.2 kmh 29.84 in1010.5 mb 0.00 in0.0 mm 0.00 in0.0 mm 0.00 in0.0 mm
12:38 AM 57.9°F14.4°C 51.2°F10.7°C 78% 6.7 mph SSE10.8 kmh SSE 17.5 mph28.2 kmh 29.84 in1010.5 mb 0.00 in0.0 mm 0.00 in0.0 mm 0.00 in0.0 mm
12:33 AM 58.1°F14.5°C 51.7°F10.9°C 79% 6.0 mph S9.7 kmh S 18.8 mph30.3 kmh 29.84 in1010.5 mb 0.00 in0.0 mm 0.00 in0.0 mm 0.00 in0.0 mm
12:28 AM 58.2°F14.6°C 51.8°F11.0°C 79% 9.5 mph S15.3 kmh S 18.8 mph30.3 kmh 29.84 in1010.5 mb 0.00 in0.0 mm 0.00 in0.0 mm 0.00 in0.0 mm
12:23 AM 58.1°F14.5°C 52.3°F11.3°C 81% 8.7 mph S14.0 kmh S 21.3 mph34.3 kmh 29.84 in1010.5 mb 0.00 in0.0 mm 0.00 in0.0 mm 0.00 in0.0 mm
12:18 AM 58.2°F14.6°C 53.4°F11.9°C 84% 9.0 mph S14.5 kmh S 21.3 mph34.3 kmh 29.84 in1010.5 mb 0.00 in0.0 mm 0.00 in0.0 mm 0.00 in0.0 mm
12:13 AM 58.1°F14.5°C 54.2°F12.3°C 87% 11.1 mph S17.9 kmh S 17.5 mph28.2 kmh 29.84 in1010.5 mb 0.00 in0.0 mm 0.00 in0.0 mm 0.00 in0.0 mm
12:08 AM 58.2°F14.6°C 54.6°F12.6°C 88% 4.2 mph S6.8 kmh S 14.0 mph22.5 kmh 29.84 in1010.5 mb 0.00 in0.0 mm 0.00 in0.0 mm 0.00 in0.0 mm
12:03 AM 58.3°F14.6°C 54.7°F12.6°C 88% 5.9 mph S9.5 kmh S 16.3 mph26.2 kmh 29.84 in1010.5 mb 0.00 in0.0 mm 0.00 in0.0 mm 0.00 in0.0 mm